Time;durP1;ratioP1;P1;durP2;ratioP2;P2;SDS_P1;SDS_P2;PMS_P1;PMS_P2;Temp;Humidity;BMP_temperature;BMP_pressure;BME280_temperature;BME280_humidity;BME280_pressure;Samples;Min_cycle;Max_cycle;Signal;HPM_P1;HPM_P2
2021/01/13 00:00:06;;;;;;;5.72;2.90;;;;;;;;;;5100427;28;20132;-88
2021/01/13 00:02:32;;;;;;;7.35;2.33;;;;;;;;;;5099938;28;20028;-90
2021/01/13 00:04:58;;;;;;;6.93;2.45;;;;;;;;;;5099983;28;20042;-88
2021/01/13 00:07:25;;;;;;;9.25;2.47;;;;;;;;;;5117866;28;20027;-89
2021/01/13 00:09:51;;;;;;;6.57;2.20;;;;;;;;;;5117601;28;20024;-88
2021/01/13 00:12:17;;;;;;;10.30;2.40;;;;;;;;;;5099755;28;20115;-88
2021/01/13 00:14:43;;;;;;;10.18;2.45;;;;;;;;;;5099743;28;20036;-87
2021/01/13 00:17:10;;;;;;;12.60;2.58;;;;;;;;;;5100176;28;20027;-89
2021/01/13 00:19:37;;;;;;;12.57;3.22;;;;;;;;;;5099960;28;20027;-87
2021/01/13 00:22:03;;;;;;;8.60;2.38;;;;;;;;;;5099915;28;20034;-88
2021/01/13 00:24:30;;;;;;;8.73;2.47;;;;;;;;;;5100025;28;20019;-88
2021/01/13 00:27:01;;;;;;;7.43;2.70;;;;;;;;;;5099806;28;20035;-88
2021/01/13 00:29:27;;;;;;;9.65;2.33;;;;;;;;;;5099645;28;20028;-88
2021/01/13 00:31:57;;;;;;;7.13;2.45;;;;;;;;;;5099852;28;20028;-87
2021/01/13 00:34:24;;;;;;;10.60;2.45;;;;;;;;;;5099892;28;20052;-87
2021/01/13 00:36:50;;;;;;;9.70;2.67;;;;;;;;;;5099340;28;20031;-87
2021/01/13 00:39:17;;;;;;;8.18;2.13;;;;;;;;;;5099214;28;20016;-87
2021/01/13 00:41:43;;;;;;;8.68;2.42;;;;;;;;;;5099374;28;20051;-88
2021/01/13 00:44:09;;;;;;;5.32;2.42;;;;;;;;;;5094570;28;20394;-88
2021/01/13 00:46:36;;;;;;;10.18;2.90;;;;;;;;;;5095521;28;20032;-88
2021/01/13 00:49:03;;;;;;;10.10;3.13;;;;;;;;;;5095178;28;20028;-88
2021/01/13 00:51:33;;;;;;;13.25;3.30;;;;;;;;;;5095776;28;20028;-87
2021/01/13 00:53:59;;;;;;;9.52;2.95;;;;;;;;;;5095721;28;20039;-88
2021/01/13 00:56:26;;;;;;;7.25;2.10;;;;;;;;;;5095845;28;20028;-87
2021/01/13 00:58:52;;;;;;;8.20;2.65;;;;;;;;;;5099116;28;20457;-88
2021/01/13 01:01:18;;;;;;;11.05;2.50;;;;;;;;;;5099009;28;20024;-88
2021/01/13 01:03:44;;;;;;;9.23;2.38;;;;;;;;;;5098997;28;20074;-88
2021/01/13 01:06:13;;;;;;;12.52;2.95;;;;;;;;;;5119489;28;20092;-88
2021/01/13 01:08:39;;;;;;;10.63;2.95;;;;;;;;;;5120561;28;20082;-87
2021/01/13 01:11:06;;;;;;;9.90;2.88;;;;;;;;;;5102033;28;20267;-87
2021/01/13 01:13:32;;;;;;;6.50;2.42;;;;;;;;;;5102357;28;20338;-88
2021/01/13 01:15:59;;;;;;;6.53;2.42;;;;;;;;;;5102588;28;20035;-88
2021/01/13 01:18:25;;;;;;;10.10;2.83;;;;;;;;;;5102846;28;20032;-88
2021/01/13 01:20:51;;;;;;;6.95;2.03;;;;;;;;;;5119997;28;20029;-89
2021/01/13 01:23:17;;;;;;;11.93;3.03;;;;;;;;;;5101973;28;20031;-89
2021/01/13 01:25:43;;;;;;;7.60;2.20;;;;;;;;;;5102358;28;20028;-87
2021/01/13 01:28:09;;;;;;;8.00;2.88;;;;;;;;;;5102442;28;20028;-89
2021/01/13 01:30:36;;;;;;;13.63;3.30;;;;;;;;;;5120258;28;20020;-87
2021/01/13 01:33:02;;;;;;;11.82;3.55;;;;;;;;;;5101899;28;20031;-89
2021/01/13 01:35:28;;;;;;;9.43;2.50;;;;;;;;;;5102030;28;20338;-87
2021/01/13 01:37:54;;;;;;;8.55;2.80;;;;;;;;;;5119255;28;20034;-89
2021/01/13 01:40:20;;;;;;;10.60;3.25;;;;;;;;;;5098954;28;20024;-88
2021/01/13 01:42:47;;;;;;;8.25;3.45;;;;;;;;;;5101154;28;20035;-88
2021/01/13 01:45:15;;;;;;;8.88;2.85;;;;;;;;;;5101608;28;20043;-91
2021/01/13 01:48:01;;;;;;;10.57;3.30;;;;;;;;;;5101642;28;20122;-89
2021/01/13 01:50:33;;;;;;;10.60;2.95;;;;;;;;;;5101969;28;20338;-87
2021/01/13 01:53:22;;;;;;;10.65;2.60;;;;;;;;;;5101462;28;20034;-87
2021/01/13 01:55:51;;;;;;;8.80;3.03;;;;;;;;;;5106671;28;20059;-87
2021/01/13 01:58:28;;;;;;;11.00;2.90;;;;;;;;;;5119419;28;20061;-88
2021/01/13 02:00:56;;;;;;;9.23;3.10;;;;;;;;;;5119108;28;20027;-89
2021/01/13 02:03:23;;;;;;;8.45;3.20;;;;;;;;;;5101546;28;20027;-88
2021/01/13 02:05:50;;;;;;;8.98;2.70;;;;;;;;;;5119200;28;20031;-88
2021/01/13 02:08:23;;;;;;;5.10;2.63;;;;;;;;;;5101377;28;20032;-89
2021/01/13 02:10:49;;;;;;;11.82;3.17;;;;;;;;;;5101654;28;20042;-87
2021/01/13 02:13:19;;;;;;;12.85;3.55;;;;;;;;;;5101564;28;20031;-89
2021/01/13 02:15:45;;;;;;;7.90;2.65;;;;;;;;;;5101378;28;20030;-88
2021/01/13 02:18:11;;;;;;;9.73;3.05;;;;;;;;;;5101465;28;20080;-89
2021/01/13 02:20:40;;;;;;;11.30;3.38;;;;;;;;;;5101733;28;20038;-88
2021/01/13 02:23:08;;;;;;;9.60;3.22;;;;;;;;;;5101343;28;20370;-89
2021/01/13 02:25:50;;;;;;;19.10;3.63;;;;;;;;;;5101514;28;20051;-88
2021/01/13 02:28:23;;;;;;;9.52;2.97;;;;;;;;;;5101439;28;20024;-88
2021/01/13 02:31:10;;;;;;;14.18;4.60;;;;;;;;;;5101622;28;20039;-88
2021/01/13 02:34:05;;;;;;;13.43;3.67;;;;;;;;;;5084077;28;20031;-89
2021/01/13 02:36:34;;;;;;;7.95;2.72;;;;;;;;;;5029172;28;20041;-88
2021/01/13 02:39:01;;;;;;;15.45;3.35;;;;;;;;;;5101391;28;20444;-89
2021/01/13 02:41:28;;;;;;;9.35;2.95;;;;;;;;;;5101322;28;20031;-89
2021/01/13 02:43:58;;;;;;;10.80;3.35;;;;;;;;;;5101024;28;20032;-88
2021/01/13 02:46:42;;;;;;;7.43;2.83;;;;;;;;;;5101454;28;20089;-89
2021/01/13 02:49:13;;;;;;;9.70;3.05;;;;;;;;;;5100857;28;20038;-89
2021/01/13 02:51:40;;;;;;;9.45;3.33;;;;;;;;;;5101302;28;20024;-88
2021/01/13 02:54:16;;;;;;;11.57;3.35;;;;;;;;;;5100760;28;20045;-87
2021/01/13 02:56:44;;;;;;;7.80;3.08;;;;;;;;;;5101082;28;20039;-86
2021/01/13 02:59:11;;;;;;;9.07;3.25;;;;;;;;;;5100819;28;20038;-85
2021/01/13 03:01:41;;;;;;;15.77;5.30;;;;;;;;;;5118436;28;20051;-89
2021/01/13 03:04:08;;;;;;;12.27;4.05;;;;;;;;;;5118355;28;20023;-89
2021/01/13 03:06:36;;;;;;;8.43;3.63;;;;;;;;;;5100342;28;20051;-89
2021/01/13 03:09:04;;;;;;;10.85;4.05;;;;;;;;;;5100106;28;20039;-88
2021/01/13 03:11:30;;;;;;;14.52;3.88;;;;;;;;;;5100192;28;20035;-88
2021/01/13 03:13:58;;;;;;;11.32;3.80;;;;;;;;;;5100537;28;20342;-87
2021/01/13 03:16:28;;;;;;;15.20;3.80;;;;;;;;;;5100412;28;20030;-88
2021/01/13 03:19:05;;;;;;;13.18;4.00;;;;;;;;;;5100510;28;20027;-89
2021/01/13 03:21:40;;;;;;;7.40;3.70;;;;;;;;;;5099986;28;20082;-89
2021/01/13 03:24:14;;;;;;;11.48;3.50;;;;;;;;;;5100189;28;20032;-89
2021/01/13 03:26:43;;;;;;;10.02;3.85;;;;;;;;;;5118302;28;20080;-89
2021/01/13 03:29:11;;;;;;;15.48;3.75;;;;;;;;;;5100244;28;20031;-88
2021/01/13 03:31:55;;;;;;;11.88;3.33;;;;;;;;;;5117893;28;20020;-89
2021/01/13 03:34:27;;;;;;;13.30;3.58;;;;;;;;;;5100391;28;20039;-88
2021/01/13 03:36:57;;;;;;;9.73;3.35;;;;;;;;;;5099618;28;20031;-89
2021/01/13 03:39:24;;;;;;;13.00;3.30;;;;;;;;;;5099759;28;20038;-89
2021/01/13 03:41:53;;;;;;;11.68;3.20;;;;;;;;;;5099196;28;20031;-89
2021/01/13 03:44:25;;;;;;;8.57;3.30;;;;;;;;;;5117403;28;20031;-88
2021/01/13 03:46:51;;;;;;;16.85;5.30;;;;;;;;;;5100659;28;20088;-89
2021/01/13 03:49:20;;;;;;;10.73;3.70;;;;;;;;;;5099927;28;20042;-89
2021/01/13 03:52:04;;;;;;;8.75;4.15;;;;;;;;;;5100252;28;20020;-89
2021/01/13 03:54:34;;;;;;;6.90;2.90;;;;;;;;;;5099610;28;20046;-88
2021/01/13 03:57:01;;;;;;;15.93;4.60;;;;;;;;;;5098910;28;20156;-89
2021/01/13 03:59:43;;;;;;;8.07;2.80;;;;;;;;;;5101112;28;20027;-88
2021/01/13 04:02:09;;;;;;;12.30;4.03;;;;;;;;;;5101682;28;20071;-88
2021/01/13 04:04:42;;;;;;;9.25;3.55;;;;;;;;;;5100396;28;20354;-90
2021/01/13 04:07:09;;;;;;;8.77;3.75;;;;;;;;;;5100333;28;20038;-89
2021/01/13 04:09:36;;;;;;;11.38;4.45;;;;;;;;;;5100162;28;20331;-89
2021/01/13 04:12:07;;;;;;;11.13;4.10;;;;;;;;;;5118493;28;20046;-89
2021/01/13 04:14:44;;;;;;;13.77;3.65;;;;;;;;;;5099903;28;20150;-89
2021/01/13 04:17:12;;;;;;;4.57;3.13;;;;;;;;;;5100162;28;20080;-89
2021/01/13 04:19:38;;;;;;;15.25;4.43;;;;;;;;;;5099505;28;20027;-89
2021/01/13 04:22:04;;;;;;;16.25;3.78;;;;;;;;;;5099922;28;20028;-89
2021/01/13 04:24:30;;;;;;;14.55;3.45;;;;;;;;;;5099703;28;20024;-89
2021/01/13 04:26:57;;;;;;;11.60;3.70;;;;;;;;;;5117647;28;20051;-88
2021/01/13 04:29:23;;;;;;;10.43;3.30;;;;;;;;;;5117696;28;20022;-87
2021/01/13 04:31:49;;;;;;;8.23;3.95;;;;;;;;;;5100866;28;20035;-87
2021/01/13 04:34:15;;;;;;;9.82;4.20;;;;;;;;;;5103190;28;20076;-87
2021/01/13 04:36:49;;;;;;;13.05;3.53;;;;;;;;;;5121748;28;20042;-88
2021/01/13 04:39:16;;;;;;;9.57;3.38;;;;;;;;;;5103763;28;20453;-88
2021/01/13 04:42:02;;;;;;;11.95;3.75;;;;;;;;;;5103459;28;20085;-87
2021/01/13 04:44:33;;;;;;;8.63;3.53;;;;;;;;;;5103047;28;20028;-88
2021/01/13 04:47:07;;;;;;;13.48;3.72;;;;;;;;;;5102633;28;20099;-86
2021/01/13 04:49:34;;;;;;;7.57;3.00;;;;;;;;;;5102512;28;20031;-88
2021/01/13 04:52:04;;;;;;;12.65;3.50;;;;;;;;;;5120646;28;20028;-89
2021/01/13 04:54:31;;;;;;;9.88;3.42;;;;;;;;;;5120572;28;20031;-88
2021/01/13 04:57:10;;;;;;;11.43;3.38;;;;;;;;;;5103192;28;20031;-86
2021/01/13 04:59:56;;;;;;;8.90;3.28;;;;;;;;;;5119845;28;20027;-89
2021/01/13 05:02:38;;;;;;;12.52;3.90;;;;;;;;;;5103495;28;20040;-88
2021/01/13 05:05:06;;;;;;;9.98;3.08;;;;;;;;;;5101052;28;20120;-88
2021/01/13 05:07:34;;;;;;;11.32;3.45;;;;;;;;;;5102444;28;20101;-88
2021/01/13 05:10:06;;;;;;;7.18;3.17;;;;;;;;;;5098020;28;20248;-89
2021/01/13 05:12:51;;;;;;;12.05;4.18;;;;;;;;;;5099184;28;20032;-89
2021/01/13 05:15:18;;;;;;;7.57;3.85;;;;;;;;;;5098627;28;20059;-88
2021/01/13 05:18:05;;;;;;;10.13;3.53;;;;;;;;;;5101545;28;20399;-89
2021/01/13 05:20:32;;;;;;;9.23;3.17;;;;;;;;;;5100865;28;20200;-88
2021/01/13 05:22:59;;;;;;;11.43;3.53;;;;;;;;;;5101991;28;20036;-86
2021/01/13 05:25:44;;;;;;;9.00;3.47;;;;;;;;;;5101768;28;20046;-86
2021/01/13 05:28:15;;;;;;;7.00;2.97;;;;;;;;;;5102015;28;20067;-88
2021/01/13 05:30:42;;;;;;;9.20;3.35;;;;;;;;;;5102975;28;20514;-89
2021/01/13 05:33:17;;;;;;;7.28;3.20;;;;;;;;;;5102514;28;20056;-86
2021/01/13 05:35:45;;;;;;;12.45;3.25;;;;;;;;;;5102618;28;20031;-88
2021/01/13 05:38:31;;;;;;;16.17;4.47;;;;;;;;;;5102196;28;20157;-88
2021/01/13 05:40:57;;;;;;;7.18;3.47;;;;;;;;;;5070013;28;20036;-90
2021/01/13 05:43:23;;;;;;;14.77;3.45;;;;;;;;;;5102030;28;20035;-86
2021/01/13 05:46:03;;;;;;;;;;;;;;;;;;;;;
2021/01/13 05:48:36;;;;;;;10.70;2.78;;;;;;;;;;5121563;28;20108;-86
2021/01/13 05:51:02;;;;;;;9.50;3.05;;;;;;;;;;5101304;28;20044;-88
2021/01/13 05:53:28;;;;;;;8.85;2.95;;;;;;;;;;5101017;28;20034;-89
2021/01/13 05:55:55;;;;;;;10.45;4.18;;;;;;;;;;5100148;28;20460;-89
2021/01/13 05:58:22;;;;;;;8.52;3.42;;;;;;;;;;5100808;28;20038;-88
2021/01/13 06:00:50;;;;;;;6.65;3.17;;;;;;;;;;5100568;28;20034;-88
2021/01/13 06:03:19;;;;;;;9.63;2.65;;;;;;;;;;5100756;28;20044;-89
2021/01/13 06:05:56;;;;;;;6.45;3.08;;;;;;;;;;5100111;28;20348;-88
2021/01/13 06:08:24;;;;;;;8.45;2.80;;;;;;;;;;5101117;28;20116;-87
2021/01/13 06:10:51;;;;;;;8.80;2.60;;;;;;;;;;5101540;28;20031;-89
2021/01/13 06:13:19;;;;;;;8.70;2.75;;;;;;;;;;5119022;28;20028;-87
2021/01/13 06:15:45;;;;;;;10.70;3.03;;;;;;;;;;5101821;28;20036;-89
2021/01/13 06:18:21;;;;;;;9.05;3.65;;;;;;;;;;5102019;28;20586;-89
2021/01/13 06:20:47;;;;;;;6.20;3.03;;;;;;;;;;5101103;28;20076;-87
2021/01/13 06:23:15;;;;;;;7.35;2.53;;;;;;;;;;5096768;28;20620;-89
2021/01/13 06:25:43;;;;;;;10.38;2.55;;;;;;;;;;5101430;28;20093;-89
2021/01/13 06:28:21;;;;;;;10.27;3.17;;;;;;;;;;5100967;28;20020;-91
2021/01/13 06:30:49;;;;;;;12.10;2.73;;;;;;;;;;5119123;28;20027;-90
2021/01/13 06:33:22;;;;;;;8.57;2.65;;;;;;;;;;5103601;28;20031;-89
2021/01/13 06:35:48;;;;;;;3.53;2.08;;;;;;;;;;5102576;28;20080;-89
2021/01/13 06:38:34;;;;;;;9.02;3.30;;;;;;;;;;5121090;28;20050;-89
2021/01/13 06:41:01;;;;;;;8.77;3.05;;;;;;;;;;5101469;28;20046;-88
2021/01/13 06:43:28;;;;;;;8.23;2.17;;;;;;;;;;5102105;28;20118;-89
2021/01/13 06:45:54;;;;;;;10.48;3.78;;;;;;;;;;5120116;28;20038;-90
2021/01/13 06:48:28;;;;;;;5.35;2.00;;;;;;;;;;5101985;28;20046;-87
2021/01/13 06:51:01;;;;;;;8.40;2.20;;;;;;;;;;5100909;28;20023;-90
2021/01/13 06:53:37;;;;;;;9.43;2.50;;;;;;;;;;5102567;28;20146;-89
2021/01/13 06:56:13;;;;;;;6.60;2.45;;;;;;;;;;5100598;28;20323;-87
2021/01/13 06:58:39;;;;;;;7.72;2.42;;;;;;;;;;5100343;28;20465;-90
2021/01/13 07:01:06;;;;;;;7.95;2.25;;;;;;;;;;5100914;28;20125;-90
2021/01/13 07:03:32;;;;;;;11.02;3.80;;;;;;;;;;5118473;28;20458;-90
2021/01/13 07:06:11;;;;;;;8.38;2.60;;;;;;;;;;5101899;28;20035;-90
2021/01/13 07:08:37;;;;;;;;;;;;;;;;;;5100624;28;20415;-88
2021/01/13 07:11:07;;;;;;;8.25;3.00;;;;;;;;;;5114112;28;19962;-90
2021/01/13 07:13:38;;;;;;;11.63;4.25;;;;;;;;;;5098406;28;20138;-89
2021/01/13 07:16:04;;;;;;;10.65;3.13;;;;;;;;;;5101792;28;20042;-88
2021/01/13 07:18:32;;;;;;;10.23;3.35;;;;;;;;;;5099772;28;20118;-88
2021/01/13 07:21:08;;;;;;;8.80;2.90;;;;;;;;;;5101735;28;20028;-90
2021/01/13 07:23:34;;;;;;;9.82;3.60;;;;;;;;;;5096868;28;20039;-90
2021/01/13 07:26:01;;;;;;;11.25;3.65;;;;;;;;;;5091984;28;20100;-88
2021/01/13 07:28:27;;;;;;;13.50;4.65;;;;;;;;;;5094811;28;20434;-89
2021/01/13 07:30:54;;;;;;;9.82;3.63;;;;;;;;;;5096262;28;20020;-89
2021/01/13 07:33:20;;;;;;;14.25;3.70;;;;;;;;;;5090676;28;20064;-89
2021/01/13 07:35:50;;;;;;;13.68;4.32;;;;;;;;;;5097091;28;20501;-91
2021/01/13 07:38:17;;;;;;;9.25;3.78;;;;;;;;;;5097103;28;20027;-90
2021/01/13 07:40:58;;;;;;;15.10;4.63;;;;;;;;;;5114450;28;20020;-90
2021/01/13 07:43:43;;;;;;;13.77;4.05;;;;;;;;;;5097209;28;20049;-89
2021/01/13 07:46:17;;;;;;;9.63;3.70;;;;;;;;;;5092308;28;20134;-89
2021/01/13 07:48:46;;;;;;;13.60;4.78;;;;;;;;;;5116262;28;20027;-89
2021/01/13 07:51:16;;;;;;;13.57;4.40;;;;;;;;;;5117450;28;20084;-88
2021/01/13 07:53:51;;;;;;;10.10;4.00;;;;;;;;;;5117252;28;20426;-90
2021/01/13 07:56:21;;;;;;;9.40;4.40;;;;;;;;;;5099700;28;20039;-90
2021/01/13 07:58:59;;;;;;;13.13;4.30;;;;;;;;;;5094556;28;20028;-90
2021/01/13 08:01:49;;;;;;;13.13;4.47;;;;;;;;;;5098427;28;20062;-90
2021/01/13 08:04:48;;;;;;;15.13;4.47;;;;;;;;;;5093893;28;20031;-88
2021/01/13 08:07:18;;;;;;;14.25;4.78;;;;;;;;;;5091646;28;20047;-90
2021/01/13 08:09:51;;;;;;;13.98;5.72;;;;;;;;;;5115186;28;20020;-87
2021/01/13 08:12:39;;;;;;;15.68;5.40;;;;;;;;;;5114455;28;20023;-90
2021/01/13 08:15:18;;;;;;;12.80;5.78;;;;;;;;;;5092647;28;20343;-89
2021/01/13 08:18:09;;;;;;;14.85;5.32;;;;;;;;;;5100711;28;20075;-89
2021/01/13 08:20:56;;;;;;;15.05;4.90;;;;;;;;;;5097075;28;20055;-87
2021/01/13 08:23:35;;;;;;;13.57;5.30;;;;;;;;;;5095640;28;20027;-91
2021/01/13 08:26:08;;;;;;;11.57;5.60;;;;;;;;;;5092396;28;20369;-89
2021/01/13 08:28:48;;;;;;;15.75;5.97;;;;;;;;;;5091097;28;20046;-87
2021/01/13 08:31:20;;;;;;;19.33;6.32;;;;;;;;;;5097329;28;20441;-90
2021/01/13 08:33:51;;;;;;;14.32;4.68;;;;;;;;;;5093455;28;20219;-89
2021/01/13 08:36:17;;;;;;;15.85;5.40;;;;;;;;;;5094248;28;20323;-88
2021/01/13 08:39:19;;;;;;;11.15;6.38;;;;;;;;;;5113123;28;20411;-90
2021/01/13 08:41:46;;;;;;;13.63;5.55;;;;;;;;;;5024252;28;20451;-89
2021/01/13 08:44:19;;;;;;;16.38;6.05;;;;;;;;;;5079147;28;20081;-88
2021/01/13 08:47:01;;;;;;;15.27;5.53;;;;;;;;;;5107159;28;20031;-91
2021/01/13 08:49:32;;;;;;;15.48;5.28;;;;;;;;;;5101700;28;20023;-89
2021/01/13 08:52:07;;;;;;;13.88;5.25;;;;;;;;;;5098060;28;20039;-88
2021/01/13 08:54:42;;;;;;;14.90;6.25;;;;;;;;;;5103188;28;20092;-88
2021/01/13 08:57:10;;;;;;;15.27;5.72;;;;;;;;;;5102626;28;20063;-87
2021/01/13 08:59:41;;;;;;;14.98;5.95;;;;;;;;;;5101526;28;20036;-86
2021/01/13 09:02:11;;;;;;;11.73;5.82;;;;;;;;;;5091962;28;20073;-87
2021/01/13 09:04:55;;;;;;;13.48;5.90;;;;;;;;;;5095668;28;20032;-89
2021/01/13 09:07:32;;;;;;;14.93;5.20;;;;;;;;;;5097522;28;20166;-88
2021/01/13 09:10:00;;;;;;;14.70;5.68;;;;;;;;;;5094061;28;20032;-91
2021/01/13 09:12:27;;;;;;;13.70;5.53;;;;;;;;;;5095438;28;20028;-90
2021/01/13 09:15:19;;;;;;;15.50;5.50;;;;;;;;;;5092672;28;20100;-89
2021/01/13 09:17:59;;;;;;;22.58;6.20;;;;;;;;;;5087787;28;20035;-91
2021/01/13 09:20:29;;;;;;;15.88;7.47;;;;;;;;;;5098299;28;20146;-87
2021/01/13 09:22:59;;;;;;;22.85;5.82;;;;;;;;;;5111758;28;20192;-88
2021/01/13 09:25:25;;;;;;;;;;;;;;;;;;5100277;28;20035;-87
2021/01/13 09:27:54;;;;;;;12.05;4.60;;;;;;;;;;5101347;28;19953;-86
2021/01/13 09:30:24;;;;;;;17.13;5.60;;;;;;;;;;5089325;28;20031;-89
2021/01/13 09:32:51;;;;;;;11.57;4.35;;;;;;;;;;5092229;28;20049;-87
2021/01/13 09:35:29;;;;;;;15.75;5.28;;;;;;;;;;5112529;28;20118;-88
2021/01/13 09:37:56;;;;;;;17.30;5.45;;;;;;;;;;5093895;28;20056;-89
2021/01/13 09:40:42;;;;;;;14.65;4.88;;;;;;;;;;5093877;28;20027;-86
2021/01/13 09:43:23;;;;;;;14.93;4.47;;;;;;;;;;5118556;28;20039;-88
2021/01/13 09:45:53;;;;;;;11.30;4.75;;;;;;;;;;5112820;28;20358;-88
2021/01/13 09:48:20;;;;;;;13.55;5.55;;;;;;;;;;5116653;28;20039;-89
2021/01/13 09:50:47;;;;;;;13.40;5.35;;;;;;;;;;5100740;28;20033;-88
2021/01/13 09:53:13;;;;;;;12.25;5.25;;;;;;;;;;5103964;28;20031;-88
2021/01/13 09:55:40;;;;;;;13.35;5.53;;;;;;;;;;5116244;28;20074;-88
2021/01/13 09:58:17;;;;;;;13.10;5.55;;;;;;;;;;5106712;28;20039;-89
2021/01/13 10:00:43;;;;;;;10.75;5.43;;;;;;;;;;5115460;28;20046;-87
2021/01/13 10:03:13;;;;;;;12.45;5.43;;;;;;;;;;5100420;28;20032;-87
2021/01/13 10:05:39;;;;;;;12.27;5.00;;;;;;;;;;5114820;28;20055;-88
2021/01/13 10:08:06;;;;;;;9.98;5.00;;;;;;;;;;5098417;28;20035;-87
2021/01/13 10:10:33;;;;;;;14.70;5.72;;;;;;;;;;5097269;28;20070;-88
2021/01/13 10:13:00;;;;;;;15.73;5.07;;;;;;;;;;5088893;28;20042;-90
2021/01/13 10:15:30;;;;;;;10.10;4.60;;;;;;;;;;5096050;28;20051;-88
2021/01/13 10:18:03;;;;;;;20.42;5.28;;;;;;;;;;5097346;28;20080;-90
2021/01/13 10:20:29;;;;;;;12.43;5.10;;;;;;;;;;5099515;28;20023;-90
2021/01/13 10:22:55;;;;;;;10.38;5.60;;;;;;;;;;5097747;28;20042;-90
2021/01/13 10:25:29;;;;;;;13.27;4.93;;;;;;;;;;5114736;28;20532;-89
2021/01/13 10:27:55;;;;;;;15.63;5.35;;;;;;;;;;5116093;28;20024;-88
2021/01/13 10:30:22;;;;;;;12.45;5.22;;;;;;;;;;5110525;28;20036;-88
2021/01/13 10:32:53;;;;;;;14.82;4.95;;;;;;;;;;5095965;28;20043;-89
2021/01/13 10:35:20;;;;;;;11.55;5.32;;;;;;;;;;5097282;28;20322;-88
2021/01/13 10:37:57;;;;;;;12.13;5.53;;;;;;;;;;5102273;28;20031;-86
2021/01/13 10:40:23;;;;;;;12.35;5.25;;;;;;;;;;5091597;28;20454;-86
2021/01/13 10:42:51;;;;;;;15.32;5.30;;;;;;;;;;5120712;28;20041;-89
2021/01/13 10:45:18;;;;;;;14.20;5.40;;;;;;;;;;5100863;28;20294;-88
2021/01/13 10:47:57;;;;;;;22.45;5.70;;;;;;;;;;5098984;28;20031;-87
2021/01/13 10:50:23;;;;;;;;;;;;;;;;;;5101351;28;20103;-88
2021/01/13 10:52:54;;;;;;;9.63;4.50;;;;;;;;;;5097371;28;20413;-89
2021/01/13 10:55:24;;;;;;;13.30;4.55;;;;;;;;;;5097173;28;20130;-90
2021/01/13 10:57:51;;;;;;;12.77;4.65;;;;;;;;;;5096347;28;20031;-87
2021/01/13 11:00:23;;;;;;;13.43;5.00;;;;;;;;;;5097396;28;20112;-90
2021/01/13 11:03:05;;;;;;;12.73;5.07;;;;;;;;;;5113959;28;20030;-91
2021/01/13 11:05:38;;;;;;;13.30;5.38;;;;;;;;;;5096881;28;20043;-90
2021/01/13 11:08:06;;;;;;;20.15;5.72;;;;;;;;;;5098099;28;20039;-88
2021/01/13 11:10:32;;;;;;;12.48;6.22;;;;;;;;;;5098035;28;20027;-89
2021/01/13 11:13:02;;;;;;;14.73;5.35;;;;;;;;;;5098467;28;20027;-89
2021/01/13 11:15:29;;;;;;;10.80;4.60;;;;;;;;;;5104279;28;20027;-88
2021/01/13 11:17:58;;;;;;;16.25;5.18;;;;;;;;;;5100501;28;20031;-86
2021/01/13 11:20:24;;;;;;;;;;;;;;;;;;5099429;28;20043;-87
2021/01/13 11:22:57;;;;;;;15.27;5.30;;;;;;;;;;5089746;28;19922;-87
2021/01/13 11:25:27;;;;;;;9.13;5.97;;;;;;;;;;5098366;28;20134;-89
2021/01/13 11:27:52;;;;;;;;;;;;;;;;;;5095646;28;20031;-87
2021/01/13 11:30:19;;;;;;;10.77;6.18;;;;;;;;;;5112505;28;19966;-87
2021/01/13 11:32:50;;;;;;;17.00;6.60;;;;;;;;;;5094542;28;20023;-88
2021/01/13 11:35:24;;;;;;;12.10;6.47;;;;;;;;;;5094258;28;20089;-89
2021/01/13 11:37:53;;;;;;;12.73;6.15;;;;;;;;;;5089517;28;20339;-88
2021/01/13 11:40:20;;;;;;;;;;;;;;;;;;5108528;28;20126;-88
2021/01/13 11:43:07;;;;;;;17.63;7.35;;;;;;;;;;5107734;28;20023;-89
2021/01/13 11:45:53;;;;;;;19.45;7.43;;;;;;;;;;5083769;28;20028;-88
2021/01/13 11:48:25;;;;;;;22.13;6.85;;;;;;;;;;5106309;28;20054;-88
2021/01/13 11:50:58;;;;;;;13.30;7.00;;;;;;;;;;5095120;28;20031;-88
2021/01/13 11:53:28;;;;;;;12.80;6.38;;;;;;;;;;5089807;28;20362;-90
2021/01/13 11:55:55;;;;;;;12.57;6.53;;;;;;;;;;5087772;28;20124;-89
2021/01/13 11:58:21;;;;;;;11.90;6.40;;;;;;;;;;5090026;28;20040;-88
2021/01/13 12:00:47;;;;;;;15.93;7.50;;;;;;;;;;5092828;28;20035;-90
2021/01/13 12:03:19;;;;;;;13.65;6.28;;;;;;;;;;5092272;28;20032;-88
2021/01/13 12:05:49;;;;;;;14.77;6.82;;;;;;;;;;5093121;28;20108;-87
2021/01/13 12:08:17;;;;;;;14.10;6.57;;;;;;;;;;5095132;28;20035;-88
2021/01/13 12:10:44;;;;;;;12.60;6.30;;;;;;;;;;5095947;28;20032;-86
2021/01/13 12:13:18;;;;;;;15.13;6.10;;;;;;;;;;5105361;28;20078;-87
2021/01/13 12:15:51;;;;;;;13.13;6.55;;;;;;;;;;5106969;28;20043;-85
2021/01/13 12:18:22;;;;;;;13.07;6.05;;;;;;;;;;5095553;28;20349;-85
2021/01/13 12:20:49;;;;;;;12.70;6.13;;;;;;;;;;5094477;28;20114;-87
2021/01/13 12:23:39;;;;;;;13.82;5.72;;;;;;;;;;5098865;28;20042;-89
2021/01/13 12:26:05;;;;;;;;;;;;;;;;;;5098166;28;20408;-87
2021/01/13 12:28:34;;;;;;;14.63;6.13;;;;;;;;;;5107852;28;20269;-89
2021/01/13 12:31:00;;;;;;;12.85;6.97;;;;;;;;;;5094269;28;20019;-88
2021/01/13 12:33:26;;;;;;;13.88;5.85;;;;;;;;;;5092211;28;20031;-90
2021/01/13 12:35:52;;;;;;;13.60;5.53;;;;;;;;;;5094518;28;20311;-87
2021/01/13 12:38:36;;;;;;;14.90;6.25;;;;;;;;;;5090954;28;20073;-88
2021/01/13 12:41:06;;;;;;;12.50;5.53;;;;;;;;;;5093074;28;20532;-87
2021/01/13 12:43:36;;;;;;;15.18;5.78;;;;;;;;;;5106567;28;20031;-88
2021/01/13 12:46:03;;;;;;;12.35;5.28;;;;;;;;;;5096598;28;20367;-87
2021/01/13 12:48:45;;;;;;;15.40;5.90;;;;;;;;;;5093223;28;20031;-87
2021/01/13 12:51:14;;;;;;;15.80;6.00;;;;;;;;;;5097998;28;20314;-90
2021/01/13 12:53:40;;;;;;;12.15;5.82;;;;;;;;;;5101289;28;20028;-88
2021/01/13 12:56:10;;;;;;;11.32;5.68;;;;;;;;;;5099817;28;20050;-87
2021/01/13 12:58:35;;;;;;;;;;;;;;;;;;5100699;28;20305;-88
2021/01/13 13:01:02;;;;;;;13.15;5.22;;;;;;;;;;5102055;28;19920;-86
2021/01/13 13:03:28;;;;;;;10.43;4.32;;;;;;;;;;5100426;28;20178;-87
2021/01/13 13:05:55;;;;;;;11.27;4.82;;;;;;;;;;5097091;28;20047;-87
2021/01/13 13:08:24;;;;;;;12.43;5.45;;;;;;;;;;5098023;28;20031;-89
2021/01/13 13:10:50;;;;;;;15.90;5.70;;;;;;;;;;5099558;28;20067;-88
2021/01/13 13:13:16;;;;;;;14.40;6.28;;;;;;;;;;5108187;28;20043;-87
2021/01/13 13:15:43;;;;;;;12.95;5.15;;;;;;;;;;5108216;28;20213;-88
2021/01/13 13:18:09;;;;;;;11.70;5.65;;;;;;;;;;5101598;28;20043;-85
2021/01/13 13:20:35;;;;;;;8.77;4.75;;;;;;;;;;5110689;28;20043;-89
2021/01/13 13:23:02;;;;;;;11.93;5.95;;;;;;;;;;5117352;28;20027;-89
2021/01/13 13:25:28;;;;;;;17.73;6.55;;;;;;;;;;5111265;28;20059;-90
2021/01/13 13:27:54;;;;;;;13.73;5.30;;;;;;;;;;5101829;28;20081;-87
2021/01/13 13:30:20;;;;;;;15.70;5.85;;;;;;;;;;5097378;28;20039;-85
2021/01/13 13:32:47;;;;;;;9.98;6.10;;;;;;;;;;5115151;28;20023;-89
2021/01/13 13:35:13;;;;;;;10.27;5.40;;;;;;;;;;5097051;28;20454;-86
2021/01/13 13:37:39;;;;;;;17.08;6.07;;;;;;;;;;5096771;28;20091;-89
2021/01/13 13:40:07;;;;;;;12.15;5.72;;;;;;;;;;5095825;28;20032;-87
2021/01/13 13:42:34;;;;;;;12.75;5.38;;;;;;;;;;5098388;28;20027;-86
2021/01/13 13:45:00;;;;;;;9.30;5.18;;;;;;;;;;5096289;28;20019;-88
2021/01/13 13:47:27;;;;;;;11.57;4.72;;;;;;;;;;5116813;28;20035;-86
2021/01/13 13:49:53;;;;;;;20.45;5.35;;;;;;;;;;5099044;28;20025;-89
2021/01/13 13:52:19;;;;;;;9.18;4.68;;;;;;;;;;5117556;28;20035;-86
2021/01/13 13:54:48;;;;;;;10.20;4.50;;;;;;;;;;5098402;28;20028;-87
2021/01/13 13:57:17;;;;;;;13.32;4.60;;;;;;;;;;5115123;28;20031;-86
2021/01/13 13:59:43;;;;;;;13.23;5.38;;;;;;;;;;5099073;28;20028;-88
2021/01/13 14:02:09;;;;;;;10.95;4.30;;;;;;;;;;5099023;28;20028;-87
2021/01/13 14:04:35;;;;;;;12.57;3.85;;;;;;;;;;5099020;28;20036;-89
2021/01/13 14:07:02;;;;;;;13.27;4.22;;;;;;;;;;5108273;28;20043;-88
2021/01/13 14:09:31;;;;;;;10.95;4.50;;;;;;;;;;5100351;28;20058;-89
2021/01/13 14:11:57;;;;;;;11.65;4.35;;;;;;;;;;5098411;28;20023;-86
2021/01/13 14:14:23;;;;;;;12.23;4.30;;;;;;;;;;5115137;28;20080;-89
2021/01/13 14:16:53;;;;;;;13.93;4.57;;;;;;;;;;5097869;28;20271;-87
2021/01/13 14:19:19;;;;;;;14.68;5.75;;;;;;;;;;5096174;28;20384;-89
2021/01/13 14:21:46;;;;;;;14.45;4.45;;;;;;;;;;5100994;28;20039;-88
2021/01/13 14:24:12;;;;;;;11.52;4.43;;;;;;;;;;5101419;28;20058;-89
2021/01/13 14:26:38;;;;;;;9.63;4.18;;;;;;;;;;5098317;28;20039;-89
2021/01/13 14:29:04;;;;;;;8.75;4.22;;;;;;;;;;5116760;28;20028;-89
2021/01/13 14:31:37;;;;;;;9.43;4.32;;;;;;;;;;5098792;28;20023;-89
2021/01/13 14:34:03;;;;;;;10.35;4.05;;;;;;;;;;5116836;28;20042;-91
2021/01/13 14:36:36;;;;;;;12.10;4.45;;;;;;;;;;5095044;28;20023;-91
2021/01/13 14:39:02;;;;;;;12.30;5.10;;;;;;;;;;5097160;28;20039;-89
2021/01/13 14:41:44;;;;;;;15.18;4.95;;;;;;;;;;5159513;27;20130;-88
2021/01/13 14:44:10;;;;;;;14.18;4.30;;;;;;;;;;5129588;27;20038;-88
2021/01/13 14:46:36;;;;;;;12.23;5.43;;;;;;;;;;5129049;27;20030;-90
2021/01/13 14:49:02;;;;;;;7.43;3.88;;;;;;;;;;5113553;28;20019;-88
2021/01/13 14:51:28;;;;;;;11.70;4.32;;;;;;;;;;5131402;27;20031;-88
2021/01/13 14:53:54;;;;;;;9.73;4.47;;;;;;;;;;5117268;27;20024;-88
2021/01/13 14:56:20;;;;;;;11.07;4.97;;;;;;;;;;5112154;28;20051;-90